sensor_id;sensor_type;location;lat;lon;timestamp;pressure;altitude;pressure_sealevel;temperature
73662;BMP280;61956;52.540;13.382;2022-12-05T00:00:20;90928.69;;;3.59
73662;BMP280;61956;52.540;13.382;2022-12-05T00:02:52;91314.56;;;3.63
73662;BMP280;61956;52.540;13.382;2022-12-05T00:05:21;91287.16;;;3.63
73662;BMP280;61956;52.540;13.382;2022-12-05T00:07:50;91215.56;;;3.63
73662;BMP280;61956;52.540;13.382;2022-12-05T00:10:19;90905.94;;;3.61
73662;BMP280;61956;52.540;13.382;2022-12-05T00:12:48;90810.66;;;3.61
73662;BMP280;61956;52.540;13.382;2022-12-05T00:15:17;91068.00;;;3.64
73662;BMP280;61956;52.540;13.382;2022-12-05T00:17:46;91353.22;;;3.65
73662;BMP280;61956;52.540;13.382;2022-12-05T00:20:18;91190.72;;;3.64
73662;BMP280;61956;52.540;13.382;2022-12-05T00:22:48;91374.38;;;3.65
73662;BMP280;61956;52.540;13.382;2022-12-05T00:25:17;91178.66;;;3.64
73662;BMP280;61956;52.540;13.382;2022-12-05T00:27:46;91164.75;;;3.65
73662;BMP280;61956;52.540;13.382;2022-12-05T00:30:16;91246.56;;;3.65
73662;BMP280;61956;52.540;13.382;2022-12-05T00:32:45;91220.28;;;3.65
73662;BMP280;61956;52.540;13.382;2022-12-05T00:35:14;90928.13;;;3.64
73662;BMP280;61956;52.540;13.382;2022-12-05T00:37:46;90604.34;;;3.61
73662;BMP280;61956;52.540;13.382;2022-12-05T00:40:15;91310.47;;;3.65
73662;BMP280;61956;52.540;13.382;2022-12-05T00:42:44;91407.94;;;3.67
73662;BMP280;61956;52.540;13.382;2022-12-05T00:45:14;91044.59;;;3.65
73662;BMP280;61956;52.540;13.382;2022-12-05T00:47:43;91026.69;;;3.65
73662;BMP280;61956;52.540;13.382;2022-12-05T00:50:12;91029.25;;;3.65
73662;BMP280;61956;52.540;13.382;2022-12-05T00:52:41;90831.72;;;3.65
73662;BMP280;61956;52.540;13.382;2022-12-05T00:55:13;90806.16;;;3.65
73662;BMP280;61956;52.540;13.382;2022-12-05T00:57:42;90747.34;;;3.65
73662;BMP280;61956;52.540;13.382;2022-12-05T01:00:12;91061.34;;;3.66
73662;BMP280;61956;52.540;13.382;2022-12-05T01:02:41;91315.91;;;3.67
73662;BMP280;61956;52.540;13.382;2022-12-05T01:05:10;91203.41;;;3.67
73662;BMP280;61956;52.540;13.382;2022-12-05T01:07:40;91454.28;;;3.69
73662;BMP280;61956;52.540;13.382;2022-12-05T01:10:12;91325.69;;;3.69
73662;BMP280;61956;52.540;13.382;2022-12-05T01:12:41;91137.63;;;3.68
73662;BMP280;61956;52.540;13.382;2022-12-05T01:15:11;90904.69;;;3.66
73662;BMP280;61956;52.540;13.382;2022-12-05T01:17:40;90928.41;;;3.66
73662;BMP280;61956;52.540;13.382;2022-12-05T01:20:10;91225.28;;;3.68
73662;BMP280;61956;52.540;13.382;2022-12-05T01:22:39;91417.34;;;3.70
73662;BMP280;61956;52.540;13.382;2022-12-05T01:25:08;91586.44;;;3.72
73662;BMP280;61956;52.540;13.382;2022-12-05T01:27:40;90657.88;;;3.65
73662;BMP280;61956;52.540;13.382;2022-12-05T01:30:10;90977.28;;;3.68
73662;BMP280;61956;52.540;13.382;2022-12-05T01:32:40;91127.00;;;3.69
73662;BMP280;61956;52.540;13.382;2022-12-05T01:35:09;90874.31;;;3.68
73662;BMP280;61956;52.540;13.382;2022-12-05T01:37:38;91255.16;;;3.71
73662;BMP280;61956;52.540;13.382;2022-12-05T01:40:08;91281.84;;;3.70
73662;BMP280;61956;52.540;13.382;2022-12-05T01:42:40;91406.00;;;3.71
73662;BMP280;61956;52.540;13.382;2022-12-05T01:45:14;91365.81;;;3.72
73662;BMP280;61956;52.540;13.382;2022-12-05T01:47:45;91468.81;;;3.72
73662;BMP280;61956;52.540;13.382;2022-12-05T01:50:14;91594.13;;;3.72
73662;BMP280;61956;52.540;13.382;2022-12-05T01:52:44;91466.97;;;3.73
73662;BMP280;61956;52.540;13.382;2022-12-05T01:55:16;91751.16;;;3.75
73662;BMP280;61956;52.540;13.382;2022-12-05T01:57:49;91845.34;;;3.77
73662;BMP280;61956;52.540;13.382;2022-12-05T02:00:19;91413.25;;;3.73
73662;BMP280;61956;52.540;13.382;2022-12-05T02:02:52;91309.13;;;3.73
73662;BMP280;61956;52.540;13.382;2022-12-05T02:05:26;91521.69;;;3.76
73662;BMP280;61956;52.540;13.382;2022-12-05T02:07:59;91865.41;;;3.78
73662;BMP280;61956;52.540;13.382;2022-12-05T02:10:34;91622.84;;;3.77
73662;BMP280;61956;52.540;13.382;2022-12-05T02:13:16;91720.03;;;3.77
73662;BMP280;61956;52.540;13.382;2022-12-05T02:16:10;91903.06;;;3.78
73662;BMP280;61956;52.540;13.382;2022-12-05T02:18:54;91875.66;;;3.78
73662;BMP280;61956;52.540;13.382;2022-12-05T02:22:04;91895.00;;;3.79
73662;BMP280;61956;52.540;13.382;2022-12-05T02:25:13;91610.78;;;3.77
73662;BMP280;61956;52.540;13.382;2022-12-05T02:28:18;91558.50;;;3.78
73662;BMP280;61956;52.540;13.382;2022-12-05T02:31:07;91152.75;;;3.75
73662;BMP280;61956;52.540;13.382;2022-12-05T02:33:46;91081.88;;;3.76
73662;BMP280;61956;52.540;13.382;2022-12-05T02:36:24;91524.53;;;3.78
73662;BMP280;61956;52.540;13.382;2022-12-05T02:39:03;91776.22;;;3.80
73662;BMP280;61956;52.540;13.382;2022-12-05T02:41:47;91664.81;;;3.79
73662;BMP280;61956;52.540;13.382;2022-12-05T02:44:23;91655.28;;;3.80
73662;BMP280;61956;52.540;13.382;2022-12-05T02:47:03;91716.69;;;3.80
73662;BMP280;61956;52.540;13.382;2022-12-05T02:49:36;91620.91;;;3.81
73662;BMP280;61956;52.540;13.382;2022-12-05T02:52:09;91496.72;;;3.80
73662;BMP280;61956;52.540;13.382;2022-12-05T02:54:45;91591.34;;;3.80
73662;BMP280;61956;52.540;13.382;2022-12-05T02:57:17;91918.31;;;3.81
73662;BMP280;61956;52.540;13.382;2022-12-05T02:59:49;91719.56;;;3.82
73662;BMP280;61956;52.540;13.382;2022-12-05T03:02:27;91765.59;;;3.82
73662;BMP280;61956;52.540;13.382;2022-12-05T03:05:07;91545.66;;;3.82
73662;BMP280;61956;52.540;13.382;2022-12-05T03:07:47;91540.53;;;3.82
73662;BMP280;61956;52.540;13.382;2022-12-05T03:10:23;91590.53;;;3.83
73662;BMP280;61956;52.540;13.382;2022-12-05T03:12:57;91709.34;;;3.82
73662;BMP280;61956;52.540;13.382;2022-12-05T03:15:33;91227.06;;;3.81
73662;BMP280;61956;52.540;13.382;2022-12-05T03:18:13;91623.09;;;3.82
73662;BMP280;61956;52.540;13.382;2022-12-05T03:20:52;91283.34;;;3.81
73662;BMP280;61956;52.540;13.382;2022-12-05T03:23:31;91438.22;;;3.82
73662;BMP280;61956;52.540;13.382;2022-12-05T03:26:08;91453.56;;;3.82
73662;BMP280;61956;52.540;13.382;2022-12-05T03:28:54;91490.81;;;3.83
73662;BMP280;61956;52.540;13.382;2022-12-05T03:31:38;91451.72;;;3.82
73662;BMP280;61956;52.540;13.382;2022-12-05T03:34:17;91592.00;;;3.84
73662;BMP280;61956;52.540;13.382;2022-12-05T03:36:56;91464.13;;;3.84
73662;BMP280;61956;52.540;13.382;2022-12-05T03:39:32;91358.53;;;3.83
73662;BMP280;61956;52.540;13.382;2022-12-05T03:42:10;91403.84;;;3.83
73662;BMP280;61956;52.540;13.382;2022-12-05T03:44:46;91467.38;;;3.84
73662;BMP280;61956;52.540;13.382;2022-12-05T03:47:23;91435.97;;;3.84
73662;BMP280;61956;52.540;13.382;2022-12-05T03:50:08;91000.94;;;3.82
73662;BMP280;61956;52.540;13.382;2022-12-05T03:52:44;91255.13;;;3.84
73662;BMP280;61956;52.540;13.382;2022-12-05T03:55:17;91521.09;;;3.84
73662;BMP280;61956;52.540;13.382;2022-12-05T03:57:51;91396.47;;;3.85
73662;BMP280;61956;52.540;13.382;2022-12-05T04:00:25;91224.44;;;3.84
73662;BMP280;61956;52.540;13.382;2022-12-05T04:03:03;91347.19;;;3.84
73662;BMP280;61956;52.540;13.382;2022-12-05T04:05:42;91417.66;;;3.85
73662;BMP280;61956;52.540;13.382;2022-12-05T04:08:18;91511.19;;;3.86
73662;BMP280;61956;52.540;13.382;2022-12-05T04:10:53;91179.81;;;3.85
73662;BMP280;61956;52.540;13.382;2022-12-05T04:13:31;91229.53;;;3.84
73662;BMP280;61956;52.540;13.382;2022-12-05T04:16:09;91156.09;;;3.85
73662;BMP280;61956;52.540;13.382;2022-12-05T04:18:58;91125.41;;;3.85
73662;BMP280;61956;52.540;13.382;2022-12-05T04:21:37;90635.72;;;3.80
73662;BMP280;61956;52.540;13.382;2022-12-05T04:24:13;91086.34;;;3.84
73662;BMP280;61956;52.540;13.382;2022-12-05T04:27:05;91337.25;;;3.86
73662;BMP280;61956;52.540;13.382;2022-12-05T04:29:49;91297.44;;;3.85
73662;BMP280;61956;52.540;13.382;2022-12-05T04:32:26;91340.94;;;3.85
73662;BMP280;61956;52.540;13.382;2022-12-05T04:35:04;91281.00;;;3.86
73662;BMP280;61956;52.540;13.382;2022-12-05T04:37:44;91487.03;;;3.87
73662;BMP280;61956;52.540;13.382;2022-12-05T04:40:21;91229.84;;;3.86
73662;BMP280;61956;52.540;13.382;2022-12-05T04:42:58;90966.84;;;3.85
73662;BMP280;61956;52.540;13.382;2022-12-05T04:45:31;90898.50;;;3.85
73662;BMP280;61956;52.540;13.382;2022-12-05T04:48:09;90936.88;;;3.85
73662;BMP280;61956;52.540;13.382;2022-12-05T04:50:43;90993.13;;;3.85
73662;BMP280;61956;52.540;13.382;2022-12-05T04:53:18;90805.75;;;3.85
73662;BMP280;61956;52.540;13.382;2022-12-05T04:55:55;90872.94;;;3.85
73662;BMP280;61956;52.540;13.382;2022-12-05T04:58:29;90641.41;;;3.84
73662;BMP280;61956;52.540;13.382;2022-12-05T05:01:04;90845.53;;;3.86
73662;BMP280;61956;52.540;13.382;2022-12-05T05:03:41;90769.94;;;3.85
73662;BMP280;61956;52.540;13.382;2022-12-05T05:06:13;90830.63;;;3.84
73662;BMP280;61956;52.540;13.382;2022-12-05T05:08:51;90801.34;;;3.85
73662;BMP280;61956;52.540;13.382;2022-12-05T05:11:23;90937.88;;;3.88
73662;BMP280;61956;52.540;13.382;2022-12-05T05:13:54;90884.63;;;3.86
73662;BMP280;61956;52.540;13.382;2022-12-05T05:16:26;91075.97;;;3.88
73662;BMP280;61956;52.540;13.382;2022-12-05T05:18:57;90807.16;;;3.86
73662;BMP280;61956;52.540;13.382;2022-12-05T05:21:29;90763.69;;;3.86
73662;BMP280;61956;52.540;13.382;2022-12-05T05:24:03;90964.16;;;3.88
73662;BMP280;61956;52.540;13.382;2022-12-05T05:26:34;91250.91;;;3.90
73662;BMP280;61956;52.540;13.382;2022-12-05T05:29:05;91264.41;;;3.91
73662;BMP280;61956;52.540;13.382;2022-12-05T05:31:35;91354.66;;;3.91
73662;BMP280;61956;52.540;13.382;2022-12-05T05:34:06;91228.59;;;3.91
73662;BMP280;61956;52.540;13.382;2022-12-05T05:36:36;91228.59;;;3.91
73662;BMP280;61956;52.540;13.382;2022-12-05T05:39:11;91337.47;;;3.92
73662;BMP280;61956;52.540;13.382;2022-12-05T05:41:42;91098.88;;;3.91
73662;BMP280;61956;52.540;13.382;2022-12-05T05:44:11;91233.31;;;3.92
73662;BMP280;61956;52.540;13.382;2022-12-05T05:46:40;91327.22;;;3.92
73662;BMP280;61956;52.540;13.382;2022-12-05T05:49:10;91381.66;;;3.92
73662;BMP280;61956;52.540;13.382;2022-12-05T05:51:39;91644.00;;;3.93
73662;BMP280;61956;52.540;13.382;2022-12-05T05:54:10;91863.94;;;3.97
73662;BMP280;61956;52.540;13.382;2022-12-05T05:56:39;91700.59;;;3.95
73662;BMP280;61956;52.540;13.382;2022-12-05T05:59:09;91619.44;;;3.96
73662;BMP280;61956;52.540;13.382;2022-12-05T06:01:38;91454.31;;;3.95
73662;BMP280;61956;52.540;13.382;2022-12-05T06:04:07;91405.00;;;3.94
73662;BMP280;61956;52.540;13.382;2022-12-05T06:06:36;91421.75;;;3.95
73662;BMP280;61956;52.540;13.382;2022-12-05T06:09:06;91366.63;;;3.94
73662;BMP280;61956;52.540;13.382;2022-12-05T06:11:38;91385.25;;;3.95
73662;BMP280;61956;52.540;13.382;2022-12-05T06:14:07;91328.97;;;3.95
73662;BMP280;61956;52.540;13.382;2022-12-05T06:16:37;90979.69;;;3.94
73662;BMP280;61956;52.540;13.382;2022-12-05T06:19:06;91201.78;;;3.95
73662;BMP280;61956;52.540;13.382;2022-12-05T06:21:35;91417.34;;;3.96
73662;BMP280;61956;52.540;13.382;2022-12-05T06:24:05;91696.53;;;3.98
73662;BMP280;61956;52.540;13.382;2022-12-05T06:26:38;91551.41;;;3.99
73662;BMP280;61956;52.540;13.382;2022-12-05T06:29:08;91642.09;;;3.98
73662;BMP280;61956;52.540;13.382;2022-12-05T06:31:37;91875.91;;;4.00
73662;BMP280;61956;52.540;13.382;2022-12-05T06:34:06;91647.91;;;3.98
73662;BMP280;61956;52.540;13.382;2022-12-05T06:36:36;91774.69;;;3.99
73662;BMP280;61956;52.540;13.382;2022-12-05T06:39:05;92023.94;;;4.02
73662;BMP280;61956;52.540;13.382;2022-12-05T06:41:34;91999.06;;;4.02
73662;BMP280;61956;52.540;13.382;2022-12-05T06:44:06;92171.22;;;4.03
73662;BMP280;61956;52.540;13.382;2022-12-05T06:46:37;92064.47;;;4.03
73662;BMP280;61956;52.540;13.382;2022-12-05T06:49:07;92209.22;;;4.04
73662;BMP280;61956;52.540;13.382;2022-12-05T06:51:37;92026.09;;;4.03
73662;BMP280;61956;52.540;13.382;2022-12-05T06:54:07;92055.34;;;4.02
73662;BMP280;61956;52.540;13.382;2022-12-05T06:56:36;91777.59;;;4.01
73662;BMP280;61956;52.540;13.382;2022-12-05T06:59:07;91745.75;;;4.02
73662;BMP280;61956;52.540;13.382;2022-12-05T07:01:37;91832.03;;;4.02
73662;BMP280;61956;52.540;13.382;2022-12-05T07:04:05;91809.72;;;4.02
73662;BMP280;61956;52.540;13.382;2022-12-05T07:06:35;91768.06;;;4.02
73662;BMP280;61956;52.540;13.382;2022-12-05T07:09:05;91603.59;;;4.01
73662;BMP280;61956;52.540;13.382;2022-12-05T07:11:35;91680.34;;;4.01
73662;BMP280;61956;52.540;13.382;2022-12-05T07:14:07;91537.09;;;4.01
73662;BMP280;61956;52.540;13.382;2022-12-05T07:16:37;92263.31;;;4.06
73662;BMP280;61956;52.540;13.382;2022-12-05T07:19:06;92138.28;;;4.05
73662;BMP280;61956;52.540;13.382;2022-12-05T07:21:35;91895.19;;;4.05
73662;BMP280;61956;52.540;13.382;2022-12-05T07:24:04;91967.56;;;4.05
73662;BMP280;61956;52.540;13.382;2022-12-05T07:26:34;91872.88;;;4.05
73662;BMP280;61956;52.540;13.382;2022-12-05T07:29:03;91537.38;;;4.03
73662;BMP280;61956;52.540;13.382;2022-12-05T07:31:34;91829.38;;;4.05
73662;BMP280;61956;52.540;13.382;2022-12-05T07:34:04;92350.66;;;4.08
73662;BMP280;61956;52.540;13.382;2022-12-05T07:36:33;92350.66;;;4.08
73662;BMP280;61956;52.540;13.382;2022-12-05T07:39:02;92330.16;;;4.08
73662;BMP280;61956;52.540;13.382;2022-12-05T07:41:32;92424.50;;;4.10
73662;BMP280;61956;52.540;13.382;2022-12-05T07:44:06;92871.69;;;4.13
73662;BMP280;61956;52.540;13.382;2022-12-05T07:46:41;92482.28;;;4.11
73662;BMP280;61956;52.540;13.382;2022-12-05T07:49:11;92213.91;;;4.09
73662;BMP280;61956;52.540;13.382;2022-12-05T07:51:40;92466.91;;;4.11
73662;BMP280;61956;52.540;13.382;2022-12-05T07:54:09;93223.53;;;4.15
73662;BMP280;61956;52.540;13.382;2022-12-05T07:56:38;93195.38;;;4.15
73662;BMP280;61956;52.540;13.382;2022-12-05T07:59:07;93420.00;;;4.19
73662;BMP280;61956;52.540;13.382;2022-12-05T08:01:36;92758.69;;;4.14
73662;BMP280;61956;52.540;13.382;2022-12-05T08:04:08;93202.69;;;4.17
73662;BMP280;61956;52.540;13.382;2022-12-05T08:06:37;93354.16;;;4.19
73662;BMP280;61956;52.540;13.382;2022-12-05T08:09:06;92926.91;;;4.17
73662;BMP280;61956;52.540;13.382;2022-12-05T08:11:36;92754.28;;;4.15
73662;BMP280;61956;52.540;13.382;2022-12-05T08:14:05;92225.91;;;4.12
73662;BMP280;61956;52.540;13.382;2022-12-05T08:16:34;92245.69;;;4.12
73662;BMP280;61956;52.540;13.382;2022-12-05T08:19:05;92427.75;;;4.14
73662;BMP280;61956;52.540;13.382;2022-12-05T08:21:40;92247.84;;;4.13
73662;BMP280;61956;52.540;13.382;2022-12-05T08:24:10;92262.47;;;4.13
73662;BMP280;61956;52.540;13.382;2022-12-05T08:26:39;92452.94;;;4.15
73662;BMP280;61956;52.540;13.382;2022-12-05T08:29:10;92723.22;;;4.16
73662;BMP280;61956;52.540;13.382;2022-12-05T08:31:42;92951.44;;;4.19
73662;BMP280;61956;52.540;13.382;2022-12-05T08:34:18;92619.34;;;4.15
73662;BMP280;61956;52.540;13.382;2022-12-05T08:36:48;92637.59;;;4.17
73662;BMP280;61956;52.540;13.382;2022-12-05T08:39:18;92626.28;;;4.19
73662;BMP280;61956;52.540;13.382;2022-12-05T08:41:48;92562.66;;;4.17
73662;BMP280;61956;52.540;13.382;2022-12-05T08:44:17;92833.66;;;4.19
73662;BMP280;61956;52.540;13.382;2022-12-05T08:46:48;92680.03;;;4.19
73662;BMP280;61956;52.540;13.382;2022-12-05T08:49:20;92961.97;;;4.21
73662;BMP280;61956;52.540;13.382;2022-12-05T08:51:49;93085.63;;;4.21
73662;BMP280;61956;52.540;13.382;2022-12-05T08:54:18;93184.38;;;4.22
73662;BMP280;61956;52.540;13.382;2022-12-05T08:56:49;93184.38;;;4.22
73662;BMP280;61956;52.540;13.382;2022-12-05T08:59:19;93405.72;;;4.25
73662;BMP280;61956;52.540;13.382;2022-12-05T09:01:48;93496.09;;;4.25
73662;BMP280;61956;52.540;13.382;2022-12-05T09:04:20;93639.16;;;4.27
73662;BMP280;61956;52.540;13.382;2022-12-05T09:06:50;93775.66;;;4.27
73662;BMP280;61956;52.540;13.382;2022-12-05T09:09:19;93971.44;;;4.30
73662;BMP280;61956;52.540;13.382;2022-12-05T09:11:49;93929.72;;;4.29
73662;BMP280;61956;52.540;13.382;2022-12-05T09:14:18;93649.78;;;4.29
73662;BMP280;61956;52.540;13.382;2022-12-05T09:16:48;93486.22;;;4.27
73662;BMP280;61956;52.540;13.382;2022-12-05T09:19:21;92933.81;;;4.24
73662;BMP280;61956;52.540;13.382;2022-12-05T09:21:52;93173.03;;;4.27
73662;BMP280;61956;52.540;13.382;2022-12-05T09:24:23;92994.91;;;4.26
73662;BMP280;61956;52.540;13.382;2022-12-05T09:26:53;93163.53;;;4.27
73662;BMP280;61956;52.540;13.382;2022-12-05T09:29:22;93139.03;;;4.26
73662;BMP280;61956;52.540;13.382;2022-12-05T09:31:54;93932.31;;;4.33
73662;BMP280;61956;52.540;13.382;2022-12-05T09:34:25;93570.78;;;4.31
73662;BMP280;61956;52.540;13.382;2022-12-05T09:36:55;93582.47;;;4.32
73662;BMP280;61956;52.540;13.382;2022-12-05T09:39:25;93461.00;;;4.29
73662;BMP280;61956;52.540;13.382;2022-12-05T09:42:05;93691.16;;;4.31
73662;BMP280;61956;52.540;13.382;2022-12-05T09:44:57;93118.16;;;4.28
73662;BMP280;61956;52.540;13.382;2022-12-05T09:47:48;93308.44;;;4.28
73662;BMP280;61956;52.540;13.382;2022-12-05T09:50:27;93181.09;;;4.29
73662;BMP280;61956;52.540;13.382;2022-12-05T09:53:03;93077.94;;;4.28
73662;BMP280;61956;52.540;13.382;2022-12-05T09:55:43;93585.03;;;4.32
73662;BMP280;61956;52.540;13.382;2022-12-05T09:58:25;93484.41;;;4.31
73662;BMP280;61956;52.540;13.382;2022-12-05T10:01:03;93328.19;;;4.31
73662;BMP280;61956;52.540;13.382;2022-12-05T10:04:02;93639.56;;;4.32
73662;BMP280;61956;52.540;13.382;2022-12-05T10:06:51;93914.06;;;4.34
73662;BMP280;61956;52.540;13.382;2022-12-05T10:09:39;93720.09;;;4.35
73662;BMP280;61956;52.540;13.382;2022-12-05T10:12:34;93464.66;;;4.32
73662;BMP280;61956;52.540;13.382;2022-12-05T10:15:25;93209.66;;;4.31
73662;BMP280;61956;52.540;13.382;2022-12-05T10:18:03;93231.59;;;4.32
73662;BMP280;61956;52.540;13.382;2022-12-05T10:20:43;93055.97;;;4.31
73662;BMP280;61956;52.540;13.382;2022-12-05T10:23:21;93524.69;;;4.34
73662;BMP280;61956;52.540;13.382;2022-12-05T10:25:57;93583.94;;;4.33
73662;BMP280;61956;52.540;13.382;2022-12-05T10:28:32;93647.28;;;4.36
73662;BMP280;61956;52.540;13.382;2022-12-05T10:31:09;93893.97;;;4.36
73662;BMP280;61956;52.540;13.382;2022-12-05T10:33:47;94108.84;;;4.38
73662;BMP280;61956;52.540;13.382;2022-12-05T10:36:23;94190.81;;;4.38
73662;BMP280;61956;52.540;13.382;2022-12-05T10:38:56;93796.59;;;4.36
73662;BMP280;61956;52.540;13.382;2022-12-05T10:41:26;93556.91;;;4.35
73662;BMP280;61956;52.540;13.382;2022-12-05T10:43:57;93775.78;;;4.38
73662;BMP280;61956;52.540;13.382;2022-12-05T10:46:27;93660.84;;;4.36
73662;BMP280;61956;52.540;13.382;2022-12-05T10:48:57;93879.72;;;4.39
73662;BMP280;61956;52.540;13.382;2022-12-05T10:51:27;94100.78;;;4.39
73662;BMP280;61956;52.540;13.382;2022-12-05T10:53:59;94438.31;;;4.43
73662;BMP280;61956;52.540;13.382;2022-12-05T10:56:42;94133.03;;;4.41
73662;BMP280;61956;52.540;13.382;2022-12-05T10:59:14;93992.81;;;4.41
73662;BMP280;61956;52.540;13.382;2022-12-05T11:01:48;94239.53;;;4.42
73662;BMP280;61956;52.540;13.382;2022-12-05T11:04:23;94379.03;;;4.44
73662;BMP280;61956;52.540;13.382;2022-12-05T11:06:59;94443.44;;;4.43
73662;BMP280;61956;52.540;13.382;2022-12-05T11:09:34;94856.91;;;4.47
73662;BMP280;61956;52.540;13.382;2022-12-05T11:12:15;95618.56;;;4.54
73662;BMP280;61956;52.540;13.382;2022-12-05T11:14:55;95321.44;;;4.52
73662;BMP280;61956;52.540;13.382;2022-12-05T11:17:31;95103.09;;;4.50
73662;BMP280;61956;52.540;13.382;2022-12-05T11:20:12;95549.03;;;4.55
73662;BMP280;61956;52.540;13.382;2022-12-05T11:23:16;95298.06;;;4.54
73662;BMP280;61956;52.540;13.382;2022-12-05T11:25:57;95283.41;;;4.54
73662;BMP280;61956;52.540;13.382;2022-12-05T11:28:31;95229.56;;;4.54
73662;BMP280;61956;52.540;13.382;2022-12-05T11:31:04;96034.59;;;4.59
73662;BMP280;61956;52.540;13.382;2022-12-05T11:34:00;96972.34;;;4.66
73662;BMP280;61956;52.540;13.382;2022-12-05T11:36:45;97138.59;;;4.69
73662;BMP280;61956;52.540;13.382;2022-12-05T11:39:18;97474.22;;;4.72
73662;BMP280;61956;52.540;13.382;2022-12-05T11:42:04;97374.16;;;4.72
73662;BMP280;61956;52.540;13.382;2022-12-05T11:48:11;97612.06;;;4.76
73662;BMP280;61956;52.540;13.382;2022-12-05T11:51:13;97612.06;;;4.76
73662;BMP280;61956;52.540;13.382;2022-12-05T11:54:07;96948.63;;;4.74
73662;BMP280;61956;52.540;13.382;2022-12-05T11:56:58;96015.91;;;4.68
73662;BMP280;61956;52.540;13.382;2022-12-05T11:59:56;96190.03;;;4.69
73662;BMP280;61956;52.540;13.382;2022-12-05T12:02:52;95977.09;;;4.69
73662;BMP280;61956;52.540;13.382;2022-12-05T12:05:44;96275.44;;;4.70
73662;BMP280;61956;52.540;13.382;2022-12-05T12:08:27;96090.72;;;4.70
73662;BMP280;61956;52.540;13.382;2022-12-05T12:11:05;96050.47;;;4.70
73662;BMP280;61956;52.540;13.382;2022-12-05T12:13:52;96868.81;;;4.75
73662;BMP280;61956;52.540;13.382;2022-12-05T12:16:34;97247.34;;;4.78
73662;BMP280;61956;52.540;13.382;2022-12-05T12:19:26;96953.22;;;4.77
73662;BMP280;61956;52.540;13.382;2022-12-05T12:22:27;97271.66;;;4.80
73662;BMP280;61956;52.540;13.382;2022-12-05T12:25:21;96836.69;;;4.78
73662;BMP280;61956;52.540;13.382;2022-12-05T12:28:02;96768.16;;;4.78
73662;BMP280;61956;52.540;13.382;2022-12-05T12:30:57;96290.72;;;4.75
73662;BMP280;61956;52.540;13.382;2022-12-05T12:33:40;96180.41;;;4.75
73662;BMP280;61956;52.540;13.382;2022-12-05T12:36:16;96501.56;;;4.77
73662;BMP280;61956;52.540;13.382;2022-12-05T12:39:06;95799.97;;;4.74
73662;BMP280;61956;52.540;13.382;2022-12-05T12:41:57;95521.75;;;4.72
73662;BMP280;61956;52.540;13.382;2022-12-05T12:45:13;96485.16;;;4.78
73662;BMP280;61956;52.540;13.382;2022-12-05T12:48:08;96229.59;;;4.77
73662;BMP280;61956;52.540;13.382;2022-12-05T12:50:49;95521.44;;;4.73
73662;BMP280;61956;52.540;13.382;2022-12-05T12:53:49;95555.53;;;4.74
73662;BMP280;61956;52.540;13.382;2022-12-05T12:56:39;95844.34;;;4.75
73662;BMP280;61956;52.540;13.382;2022-12-05T12:59:32;95703.25;;;4.75
73662;BMP280;61956;52.540;13.382;2022-12-05T13:02:20;95716.84;;;4.75
73662;BMP280;61956;52.540;13.382;2022-12-05T13:05:00;95611.66;;;4.75
73662;BMP280;61956;52.540;13.382;2022-12-05T13:07:41;95489.59;;;4.74
73662;BMP280;61956;52.540;13.382;2022-12-05T13:10:21;95491.41;;;4.74
73662;BMP280;61956;52.540;13.382;2022-12-05T13:12:58;95962.78;;;4.77
73662;BMP280;61956;52.540;13.382;2022-12-05T13:15:33;96021.47;;;4.78
73662;BMP280;61956;52.540;13.382;2022-12-05T13:18:13;95923.56;;;4.76
73662;BMP280;61956;52.540;13.382;2022-12-05T13:20:49;96189.00;;;4.79
73662;BMP280;61956;52.540;13.382;2022-12-05T13:23:23;96038.38;;;4.79
73662;BMP280;61956;52.540;13.382;2022-12-05T13:25:56;95940.13;;;4.79
73662;BMP280;61956;52.540;13.382;2022-12-05T13:28:28;95443.13;;;4.76
73662;BMP280;61956;52.540;13.382;2022-12-05T13:31:01;96120.19;;;4.81
73662;BMP280;61956;52.540;13.382;2022-12-05T13:33:33;96567.88;;;4.83
73662;BMP280;61956;52.540;13.382;2022-12-05T13:36:12;96329.25;;;4.83
73662;BMP280;61956;52.540;13.382;2022-12-05T13:38:57;96105.53;;;4.81
73662;BMP280;61956;52.540;13.382;2022-12-05T13:41:43;96269.47;;;4.83
73662;BMP280;61956;52.540;13.382;2022-12-05T13:44:29;96154.00;;;4.83
73662;BMP280;61956;52.540;13.382;2022-12-05T13:47:05;95668.94;;;4.79
73662;BMP280;61956;52.540;13.382;2022-12-05T13:49:50;95713.31;;;4.80
73662;BMP280;61956;52.540;13.382;2022-12-05T13:52:28;96367.44;;;4.85
73662;BMP280;61956;52.540;13.382;2022-12-05T13:55:01;96610.94;;;4.87
73662;BMP280;61956;52.540;13.382;2022-12-05T13:57:48;96434.91;;;4.85
73662;BMP280;61956;52.540;13.382;2022-12-05T14:00:31;95491.94;;;4.79
73662;BMP280;61956;52.540;13.382;2022-12-05T14:03:05;96410.00;;;4.86
73662;BMP280;61956;52.540;13.382;2022-12-05T14:05:45;96509.06;;;4.87
73662;BMP280;61956;52.540;13.382;2022-12-05T14:08:53;96162.16;;;4.85
73662;BMP280;61956;52.540;13.382;2022-12-05T14:11:23;96444.91;;;4.87
73662;BMP280;61956;52.540;13.382;2022-12-05T14:13:52;96525.97;;;4.88
73662;BMP280;61956;52.540;13.382;2022-12-05T14:16:47;95785.28;;;4.83
73662;BMP280;61956;52.540;13.382;2022-12-05T14:19:47;96311.47;;;4.87
73662;BMP280;61956;52.540;13.382;2022-12-05T14:22:55;96227.53;;;4.88
73662;BMP280;61956;52.540;13.382;2022-12-05T14:25:48;96062.56;;;4.87
73662;BMP280;61956;52.540;13.382;2022-12-05T14:28:46;96276.28;;;4.88
73662;BMP280;61956;52.540;13.382;2022-12-05T14:31:43;95596.19;;;4.84
73662;BMP280;61956;52.540;13.382;2022-12-05T14:34:23;96322.16;;;4.89
73662;BMP280;61956;52.540;13.382;2022-12-05T14:36:57;95727.47;;;4.86
73662;BMP280;61956;52.540;13.382;2022-12-05T14:39:33;96263.16;;;4.89
73662;BMP280;61956;52.540;13.382;2022-12-05T14:42:30;96878.56;;;4.92
73662;BMP280;61956;52.540;13.382;2022-12-05T14:45:22;96734.84;;;4.92
73662;BMP280;61956;52.540;13.382;2022-12-05T14:47:56;97490.25;;;4.98
73662;BMP280;61956;52.540;13.382;2022-12-05T14:50:39;97147.25;;;4.97
73662;BMP280;61956;52.540;13.382;2022-12-05T14:53:29;96756.59;;;4.95
73662;BMP280;61956;52.540;13.382;2022-12-05T14:56:13;96061.94;;;4.90
73662;BMP280;61956;52.540;13.382;2022-12-05T14:58:56;96217.44;;;4.91
73662;BMP280;61956;52.540;13.382;2022-12-05T15:01:33;96285.69;;;4.92
73662;BMP280;61956;52.540;13.382;2022-12-05T15:04:16;96535.06;;;4.94